Time;durP1;ratioP1;P1;durP2;ratioP2;P2;SDS_P1;SDS_P2;PMS_P1;PMS_P2;Temp;Humidity;BMP_temperature;BMP_pressure;BME280_temperature;BME280_humidity;BME280_pressure;Samples;Min_cycle;Max_cycle;Signal;HPM_P1;HPM_P2
2022/08/29 00:02:13;;;;;;;9.35;2.90;;;24.20;64.90;;;;;;5026252;28;20438;-58
2022/08/29 00:04:38;;;;;;;6.85;3.03;;;24.20;64.90;;;;;;5025820;28;20029;-57
2022/08/29 00:07:04;;;;;;;6.70;2.72;;;24.20;64.70;;;;;;5025436;28;20482;-57
2022/08/29 00:09:30;;;;;;;7.00;2.90;;;24.10;64.60;;;;;;5023818;28;20397;-57
2022/08/29 00:11:55;;;;;;;7.95;2.90;;;24.10;64.70;;;;;;5026308;28;20043;-57
2022/08/29 00:14:21;;;;;;;7.40;2.72;;;24.20;65.80;;;;;;5026685;28;20053;-57
2022/08/29 00:16:46;;;;;;;7.55;2.95;;;24.10;64.80;;;;;;5025559;28;20180;-57
2022/08/29 00:19:12;;;;;;;7.50;2.92;;;24.10;64.60;;;;;;5026765;28;20072;-57
2022/08/29 00:21:38;;;;;;;7.22;3.03;;;24.10;64.60;;;;;;5054454;28;20037;-57
2022/08/29 00:24:03;;;;;;;5.97;2.58;;;24.10;64.70;;;;;;5025549;28;20114;-57
2022/08/29 00:26:29;;;;;;;8.02;2.95;;;24.10;64.70;;;;;;5030092;28;20037;-57
2022/08/29 00:28:55;;;;;;;8.00;3.00;;;24.10;64.60;;;;;;5030763;28;20030;-57
2022/08/29 00:31:21;;;;;;;7.00;2.72;;;24.10;64.50;;;;;;5028549;28;20468;-57
2022/08/29 00:33:46;;;;;;;7.05;2.83;;;24.10;64.50;;;;;;5029898;28;20095;-57
2022/08/29 00:36:12;;;;;;;7.05;2.95;;;24.10;64.70;;;;;;5030067;28;20017;-57
2022/08/29 00:38:38;;;;;;;7.68;2.90;;;24.10;64.40;;;;;;5030262;28;20036;-57
2022/08/29 00:41:03;;;;;;;6.65;2.75;;;24.10;64.80;;;;;;5027789;28;20029;-57
2022/08/29 00:43:31;;;;;;;7.82;3.25;;;24.10;64.40;;;;;;5030064;28;20025;-57
2022/08/29 00:46:27;;;;;;;6.63;2.90;;;24.10;64.40;;;;;;5029571;28;20030;-57
2022/08/29 00:48:58;;;;;;;8.63;2.90;;;24.10;64.30;;;;;;5028911;28;20036;-57
2022/08/29 00:51:24;;;;;;;7.40;2.90;;;24.10;64.40;;;;;;5029309;28;20493;-57
2022/08/29 00:53:52;;;;;;;6.03;2.50;;;24.00;64.10;;;;;;5027724;28;20162;-57
2022/08/29 00:56:17;;;;;;;7.45;2.95;;;24.00;64.10;;;;;;5010083;28;20029;-57
2022/08/29 00:59:05;;;;;;;7.13;3.13;;;24.00;64.20;;;;;;5028249;28;20036;-57
2022/08/29 01:01:31;;;;;;;6.50;2.50;;;24.00;64.10;;;;;;5045790;28;20029;-57
2022/08/29 01:03:57;;;;;;;7.38;2.63;;;24.00;64.10;;;;;;5027948;28;20033;-57
2022/08/29 01:06:23;;;;;;;7.15;2.88;;;24.00;64.00;;;;;;5027065;28;20773;-57
2022/08/29 01:08:49;;;;;;;6.72;3.22;;;24.00;64.00;;;;;;5011628;28;20021;-57
2022/08/29 01:14:00;;;;;;;6.60;2.83;;;24.00;64.10;;;;;;5026378;28;20536;-57
2022/08/29 01:16:26;;;;;;;6.25;2.80;;;24.00;64.00;;;;;;5027605;28;20055;-57
2022/08/29 01:18:53;;;;;;;6.78;2.70;;;24.00;64.10;;;;;;5028351;28;20704;-57
2022/08/29 01:21:36;;;;;;;10.75;2.95;;;24.00;64.10;;;;;;5027804;28;20037;-57
2022/08/29 01:24:20;;;;;;;6.22;2.80;;;24.00;64.10;;;;;;5024401;28;20080;-57
2022/08/29 01:26:45;;;;;;;5.63;2.57;;;24.00;64.10;;;;;;5027479;28;20529;-57
2022/08/29 01:29:12;;;;;;;6.20;2.67;;;24.00;64.10;;;;;;5009429;28;20113;-57
2022/08/29 01:31:42;;;;;;;5.75;2.53;;;23.90;64.00;;;;;;5029072;28;20025;-57
2022/08/29 01:34:08;;;;;;;7.10;2.50;;;24.00;64.00;;;;;;5026895;28;20037;-57
2022/08/29 01:36:43;;;;;;;7.43;2.70;;;24.00;64.10;;;;;;5028566;28;20029;-57
2022/08/29 01:39:09;;;;;;;8.18;2.90;;;23.90;64.10;;;;;;5026303;28;20514;-57
2022/08/29 01:41:34;;;;;;;6.78;2.60;;;23.90;64.00;;;;;;5028994;28;20079;-57
2022/08/29 01:44:00;;;;;;;6.00;2.50;;;23.90;64.10;;;;;;5029093;28;20460;-57
2022/08/29 01:46:31;;;;;;;5.05;2.33;;;23.90;64.00;;;;;;5027801;28;20068;-57
2022/08/29 01:48:57;;;;;;;7.18;3.00;;;23.90;64.00;;;;;;5027895;28;20033;-57
2022/08/29 01:51:23;;;;;;;5.90;2.60;;;23.90;64.00;;;;;;5028725;28;20026;-57
2022/08/29 01:53:49;;;;;;;6.22;2.63;;;23.90;64.00;;;;;;5027983;28;20054;-57
2022/08/29 01:56:20;;;;;;;7.60;2.72;;;23.80;63.90;;;;;;5028064;28;20044;-57
2022/08/29 01:58:47;;;;;;;6.32;2.60;;;23.90;64.00;;;;;;5028224;28;20104;-57
2022/08/29 02:01:15;;;;;;;6.40;2.50;;;23.80;64.00;;;;;;5027559;28;20329;-57
2022/08/29 02:03:41;;;;;;;6.32;2.72;;;23.80;63.90;;;;;;5024964;28;20028;-57
2022/08/29 02:06:08;;;;;;;5.60;2.60;;;23.80;63.90;;;;;;5028142;28;20394;-57
2022/08/29 02:08:35;;;;;;;6.90;2.75;;;23.80;63.90;;;;;;5024241;28;20038;-57
2022/08/29 02:11:01;;;;;;;6.18;2.45;;;23.80;63.90;;;;;;5028589;28;20040;-57
2022/08/29 02:13:28;;;;;;;6.15;2.70;;;23.80;64.00;;;;;;5027787;28;20250;-57
2022/08/29 02:15:53;;;;;;;6.60;2.90;;;23.80;63.90;;;;;;5028110;28;20037;-57
2022/08/29 02:18:20;;;;;;;6.28;2.83;;;23.80;63.90;;;;;;5027903;28;20037;-57
2022/08/29 02:20:45;;;;;;;5.68;2.40;;;23.80;64.00;;;;;;5025985;28;20048;-57
2022/08/29 02:23:11;;;;;;;6.65;2.50;;;23.80;64.00;;;;;;5028239;28;20108;-57
2022/08/29 02:25:40;;;;;;;5.82;2.50;;;23.80;64.00;;;;;;5027323;28;20030;-57
2022/08/29 02:28:10;;;;;;;5.47;2.45;;;23.80;64.00;;;;;;5026521;28;20026;-57
2022/08/29 02:30:38;;;;;;;5.50;2.28;;;23.80;64.10;;;;;;5028491;28;20080;-57
2022/08/29 02:33:04;;;;;;;6.35;2.70;;;23.80;64.00;;;;;;5028211;28;20028;-57
2022/08/29 02:35:29;;;;;;;8.32;2.67;;;23.70;64.00;;;;;;5026703;28;20033;-57
2022/08/29 02:37:55;;;;;;;6.80;2.65;;;23.70;64.00;;;;;;5026466;28;20060;-57
2022/08/29 02:40:21;;;;;;;6.20;2.63;;;23.80;64.00;;;;;;5027766;28;20029;-57
2022/08/29 02:42:46;;;;;;;5.90;2.42;;;23.70;64.00;;;;;;5027993;28;20053;-57
2022/08/29 02:45:12;;;;;;;6.20;2.58;;;23.70;64.10;;;;;;5027133;28;20022;-57
2022/08/29 02:47:38;;;;;;;6.50;2.50;;;23.70;64.10;;;;;;5027026;28;20464;-57
2022/08/29 02:50:05;;;;;;;5.63;2.45;;;23.70;64.00;;;;;;5027891;28;20029;-57
2022/08/29 02:52:30;;;;;;;5.63;2.30;;;23.70;64.10;;;;;;5025769;28;20025;-57
2022/08/29 02:54:56;;;;;;;6.35;2.40;;;23.70;64.10;;;;;;5026272;28;20083;-57
2022/08/29 02:57:22;;;;;;;5.38;2.45;;;23.70;64.10;;;;;;5028045;28;20529;-57
2022/08/29 02:59:48;;;;;;;7.68;2.70;;;23.70;64.10;;;;;;5028415;28;20037;-57
2022/08/29 03:02:13;;;;;;;5.28;2.30;;;23.70;64.00;;;;;;5026469;28;20022;-57
2022/08/29 03:04:39;;;;;;;5.35;2.33;;;23.70;64.10;;;;;;5026807;28;20040;-57
2022/08/29 03:07:05;;;;;;;5.13;2.42;;;23.70;64.10;;;;;;5027545;28;20029;-57
2022/08/29 03:09:30;;;;;;;6.25;2.55;;;23.70;64.10;;;;;;5025869;28;20038;-57
2022/08/29 03:11:56;;;;;;;5.35;2.40;;;23.70;64.10;;;;;;5026149;28;20025;-57
2022/08/29 03:14:23;;;;;;;5.60;2.70;;;23.70;64.10;;;;;;5026684;28;20033;-57
2022/08/29 03:16:48;;;;;;;6.00;2.40;;;23.70;64.20;;;;;;5026206;28;20021;-57
2022/08/29 03:19:14;;;;;;;7.50;2.67;;;23.70;64.10;;;;;;5027004;28;20856;-57
2022/08/29 03:21:40;;;;;;;5.43;2.45;;;23.60;64.10;;;;;;5026930;28;20493;-57
2022/08/29 03:24:05;;;;;;;6.50;2.83;;;23.60;64.10;;;;;;5026929;28;20401;-57
2022/08/29 03:26:31;;;;;;;5.88;2.47;;;23.60;64.20;;;;;;5025786;28;20018;-57
2022/08/29 03:28:57;;;;;;;6.28;2.53;;;23.60;64.10;;;;;;5024646;28;20092;-57
2022/08/29 03:31:22;;;;;;;5.68;2.50;;;23.60;64.20;;;;;;5027701;28;20074;-57
2022/08/29 03:33:48;;;;;;;5.43;2.42;;;23.60;64.10;;;;;;5024964;28;20157;-57
2022/08/29 03:36:13;;;;;;;6.53;2.72;;;23.60;64.10;;;;;;5026935;28;20060;-57
2022/08/29 03:38:39;;;;;;;6.07;2.63;;;23.60;64.10;;;;;;5026960;28;20044;-57
2022/08/29 03:41:06;;;;;;;5.13;2.30;;;23.60;64.10;;;;;;5027297;28;20116;-57
2022/08/29 03:43:32;;;;;;;6.32;2.40;;;23.60;64.20;;;;;;5025953;28;20105;-57
2022/08/29 03:45:57;;;;;;;5.55;2.30;;;23.60;64.10;;;;;;5025289;28;20056;-57
2022/08/29 03:48:23;;;;;;;5.57;2.38;;;23.60;64.10;;;;;;5026259;28;20021;-57
2022/08/29 03:50:49;;;;;;;5.15;2.50;;;23.60;64.10;;;;;;5026471;28;20120;-57
2022/08/29 03:53:14;;;;;;;5.15;2.50;;;23.60;64.20;;;;;;5026885;28;20088;-57
2022/08/29 03:55:40;;;;;;;6.20;2.45;;;23.60;64.10;;;;;;5026682;28;20517;-58
2022/08/29 03:58:06;;;;;;;6.13;2.22;;;23.50;64.20;;;;;;5027631;28;20022;-57
2022/08/29 04:00:31;;;;;;;5.95;2.22;;;23.50;64.10;;;;;;5029588;28;20037;-57
2022/08/29 04:02:57;;;;;;;6.18;2.40;;;23.50;64.10;;;;;;5029665;28;20022;-58
2022/08/29 04:05:23;;;;;;;5.55;2.40;;;23.50;64.10;;;;;;5030308;28;20033;-57
2022/08/29 04:07:57;;;;;;;6.22;2.30;;;23.50;64.10;;;;;;5029987;28;20702;-57
2022/08/29 04:10:26;;;;;;;5.07;2.10;;;23.50;64.10;;;;;;5030707;28;20041;-57
2022/08/29 04:12:52;;;;;;;5.72;2.28;;;23.50;64.10;;;;;;5030322;28;20025;-57
2022/08/29 04:15:18;;;;;;;5.00;2.35;;;23.50;64.10;;;;;;5029722;28;20513;-57
2022/08/29 04:17:44;;;;;;;5.75;2.50;;;23.50;64.10;;;;;;5030065;28;20045;-57
2022/08/29 04:20:10;;;;;;;5.35;2.17;;;23.50;64.10;;;;;;5028908;28;20069;-57
2022/08/29 04:22:37;;;;;;;5.53;2.38;;;23.50;64.10;;;;;;5029359;28;20120;-57
2022/08/29 04:25:04;;;;;;;5.70;2.00;;;23.50;64.10;;;;;;5029772;28;20028;-57
2022/08/29 04:27:30;;;;;;;4.90;2.20;;;23.50;64.10;;;;;;5028918;28;20076;-57
2022/08/29 04:29:56;;;;;;;5.45;2.35;;;23.50;64.00;;;;;;5029812;28;20033;-57
2022/08/29 04:32:21;;;;;;;4.80;2.20;;;23.50;65.10;;;;;;5025913;28;20094;-57
2022/08/29 04:34:47;;;;;;;4.50;2.00;;;23.50;64.10;;;;;;5024184;28;20026;-57
2022/08/29 04:37:13;;;;;;;5.85;2.30;;;23.50;64.10;;;;;;5027214;28;20034;-57
2022/08/29 04:39:39;;;;;;;5.32;2.20;;;23.50;64.10;;;;;;5025295;28;20045;-58
2022/08/29 04:42:05;;;;;;;5.80;2.40;;;23.50;64.10;;;;;;5026129;28;20075;-57
2022/08/29 04:44:31;;;;;;;5.53;2.10;;;23.40;64.10;;;;;;5026495;28;20088;-58
2022/08/29 04:46:56;;;;;;;4.93;2.15;;;23.40;64.10;;;;;;5027942;28;20064;-57
2022/08/29 04:49:22;;;;;;;5.22;2.40;;;23.50;64.10;;;;;;5027285;28;20434;-57
2022/08/29 04:51:50;;;;;;;4.38;2.15;;;23.40;64.00;;;;;;5022505;28;20044;-57
2022/08/29 04:54:16;;;;;;;5.45;2.30;;;23.40;64.00;;;;;;5025672;28;20053;-58
2022/08/29 04:56:42;;;;;;;3.92;2.13;;;23.40;64.10;;;;;;5029424;28;20037;-57
2022/08/29 04:59:08;;;;;;;5.97;2.30;;;23.40;64.00;;;;;;5029242;28;20049;-57
2022/08/29 05:01:33;;;;;;;4.82;2.20;;;23.40;64.00;;;;;;5029471;28;20071;-58
2022/08/29 05:03:59;;;;;;;5.22;2.30;;;23.40;64.00;;;;;;5028362;28;20037;-57
2022/08/29 05:06:25;;;;;;;5.55;2.30;;;23.40;64.00;;;;;;5024867;28;20022;-57
2022/08/29 05:08:51;;;;;;;4.53;2.17;;;23.40;64.10;;;;;;5021700;28;20081;-57
2022/08/29 05:11:18;;;;;;;5.22;2.25;;;23.40;64.00;;;;;;5024847;28;20028;-58
2022/08/29 05:13:45;;;;;;;5.78;2.38;;;23.40;64.00;;;;;;5023439;28;20047;-58
2022/08/29 05:16:11;;;;;;;5.13;2.20;;;23.40;64.00;;;;;;5023428;28;20021;-58
2022/08/29 05:18:38;;;;;;;4.65;2.10;;;23.40;64.10;;;;;;5018555;28;20115;-57
2022/08/29 05:21:03;;;;;;;4.65;2.03;;;23.40;64.00;;;;;;5026327;28;20120;-57
2022/08/29 05:23:29;;;;;;;4.40;2.05;;;23.30;64.00;;;;;;5020644;28;20108;-57
2022/08/29 05:25:59;;;;;;;4.30;2.10;;;23.40;64.10;;;;;;5023646;28;20030;-57
2022/08/29 05:28:28;;;;;;;5.00;2.30;;;23.30;64.00;;;;;;5024685;28;20428;-57
2022/08/29 05:30:54;;;;;;;7.55;2.20;;;23.40;64.10;;;;;;5028820;28;20053;-58
2022/08/29 05:33:19;;;;;;;7.43;2.10;;;23.30;64.20;;;;;;5027023;28;20473;-57
2022/08/29 05:35:45;;;;;;;4.28;2.20;;;23.30;64.20;;;;;;5023498;28;20417;-57
2022/08/29 05:38:11;;;;;;;6.63;2.40;;;23.30;64.50;;;;;;5028893;28;20124;-57
2022/08/29 05:40:37;;;;;;;6.65;2.53;;;23.40;64.50;;;;;;5027255;28;20494;-57
2022/08/29 05:43:03;;;;;;;5.90;2.38;;;23.30;64.20;;;;;;5027604;28;20493;-57
2022/08/29 05:45:28;;;;;;;5.38;2.20;;;23.30;64.20;;;;;;5028393;28;20542;-57
2022/08/29 05:47:55;;;;;;;5.72;2.22;;;23.30;64.30;;;;;;5027925;28;20033;-57
2022/08/29 05:50:20;;;;;;;7.30;2.20;;;23.30;64.30;;;;;;5025825;28;20052;-57
2022/08/29 05:52:46;;;;;;;4.68;2.10;;;23.30;64.40;;;;;;5028416;28;20042;-57
2022/08/29 05:55:12;;;;;;;6.82;2.20;;;23.30;64.40;;;;;;5028346;28;20037;-57
2022/08/29 05:57:37;;;;;;;4.55;2.10;;;23.30;64.40;;;;;;5026927;28;20025;-57
2022/08/29 06:00:04;;;;;;;6.85;2.40;;;23.30;64.40;;;;;;5028544;28;20078;-57
2022/08/29 06:02:30;;;;;;;6.35;2.40;;;23.30;64.40;;;;;;5027246;28;20497;-57
2022/08/29 06:04:56;;;;;;;6.97;2.42;;;23.30;64.50;;;;;;5028192;28;20033;-58
2022/08/29 06:07:21;;;;;;;5.18;2.22;;;23.30;64.50;;;;;;5026821;28;20052;-57
2022/08/29 06:09:51;;;;;;;6.13;2.47;;;23.30;64.50;;;;;;5028067;28;20037;-57
2022/08/29 06:12:17;;;;;;;5.03;2.20;;;23.30;64.60;;;;;;5026264;28;20037;-57
2022/08/29 06:14:42;;;;;;;5.95;2.03;;;23.30;64.70;;;;;;5025759;28;20037;-57
2022/08/29 06:17:08;;;;;;;6.78;2.20;;;23.30;64.70;;;;;;5026788;28;20056;-57
2022/08/29 06:19:34;;;;;;;6.10;2.47;;;23.30;64.70;;;;;;5028033;28;20179;-57
2022/08/29 06:22:03;;;;;;;6.95;2.60;;;23.30;64.70;;;;;;5026758;28;20124;-57
2022/08/29 06:24:29;;;;;;;5.38;2.33;;;23.30;64.80;;;;;;5026805;28;20108;-57
2022/08/29 06:26:55;;;;;;;8.55;2.47;;;23.30;64.80;;;;;;5027796;28;20037;-57
2022/08/29 06:29:21;;;;;;;6.88;2.55;;;23.30;64.90;;;;;;5027510;28;20037;-57
2022/08/29 06:31:46;;;;;;;8.77;2.40;;;23.30;64.90;;;;;;5026814;28;20120;-57
2022/08/29 06:34:12;;;;;;;7.38;2.25;;;23.30;64.90;;;;;;5021669;28;20037;-57
2022/08/29 06:36:38;;;;;;;5.85;2.35;;;23.30;65.00;;;;;;5028079;28;20477;-57
2022/08/29 06:39:06;;;;;;;6.78;2.30;;;23.30;64.90;;;;;;5027088;28;20409;-58
2022/08/29 06:41:31;;;;;;;7.18;2.42;;;23.30;65.00;;;;;;5026490;28;20094;-57
2022/08/29 06:43:57;;;;;;;6.22;2.67;;;23.30;65.00;;;;;;5027229;28;20021;-57
2022/08/29 06:46:25;;;;;;;6.40;2.28;;;23.30;65.10;;;;;;5027845;28;20040;-57
2022/08/29 06:48:51;;;;;;;7.70;2.42;;;23.30;65.10;;;;;;5027166;28;20445;-57
2022/08/29 06:51:17;;;;;;;9.60;3.00;;;23.30;65.20;;;;;;5026831;28;20033;-57
2022/08/29 06:53:42;;;;;;;6.93;2.53;;;23.30;65.20;;;;;;5026868;28;20037;-57
2022/08/29 06:56:08;;;;;;;6.53;2.42;;;23.30;65.20;;;;;;5028131;28;20025;-57
2022/08/29 06:58:34;;;;;;;7.30;2.60;;;23.30;65.20;;;;;;5027348;28;20032;-57
2022/08/29 07:01:26;;;;;;;8.35;2.40;;;23.30;65.20;;;;;;5027029;28;20052;-58
2022/08/29 07:03:52;;;;;;;7.15;2.58;;;23.30;65.30;;;;;;5022990;28;20033;-57
2022/08/29 07:06:18;;;;;;;8.38;2.97;;;23.30;65.40;;;;;;5025777;28;20037;-57
2022/08/29 07:08:44;;;;;;;9.38;2.55;;;23.30;65.40;;;;;;5025703;28;20029;-57
2022/08/29 07:11:09;;;;;;;7.03;2.60;;;23.30;65.40;;;;;;5027522;28;20112;-57
2022/08/29 07:13:35;;;;;;;6.50;2.50;;;23.30;65.40;;;;;;5027152;28;20097;-58
2022/08/29 07:16:01;;;;;;;7.70;2.80;;;23.30;65.40;;;;;;5027428;28;20056;-57
2022/08/29 07:18:27;;;;;;;6.90;2.40;;;23.30;65.50;;;;;;5027049;28;20397;-58
2022/08/29 07:20:53;;;;;;;7.45;2.60;;;23.30;65.50;;;;;;5025972;28;20045;-57
2022/08/29 07:23:20;;;;;;;6.13;2.53;;;23.30;65.40;;;;;;5025971;28;20572;-57
2022/08/29 07:25:45;;;;;;;7.45;2.60;;;23.30;65.50;;;;;;5027317;28;20490;-57
2022/08/29 07:28:11;;;;;;;7.18;2.53;;;23.30;65.60;;;;;;5026998;28;20041;-57
2022/08/29 07:30:37;;;;;;;7.47;2.45;;;23.30;65.50;;;;;;5024660;28;20487;-57
2022/08/29 07:33:02;;;;;;;9.85;2.47;;;23.30;65.50;;;;;;5027498;28;20468;-57
2022/08/29 07:35:28;;;;;;;6.97;2.40;;;23.30;65.40;;;;;;5030758;28;20035;-57
2022/08/29 07:37:58;;;;;;;6.95;2.42;;;23.30;66.60;;;;;;5030100;28;20029;-57
2022/08/29 07:40:23;;;;;;;6.20;2.45;;;23.30;65.40;;;;;;5029592;28;20128;-58
2022/08/29 07:42:49;;;;;;;7.68;2.50;;;23.30;65.30;;;;;;5029650;28;20112;-57
2022/08/29 07:45:16;;;;;;;6.35;2.50;;;23.30;65.20;;;;;;5031176;28;20137;-57
2022/08/29 07:47:42;;;;;;;7.00;2.58;;;23.30;65.10;;;;;;5030556;28;20128;-58
2022/08/29 07:50:09;;;;;;;8.18;2.35;;;23.30;65.10;;;;;;5031808;28;20116;-57
2022/08/29 07:52:35;;;;;;;5.95;2.30;;;23.30;65.20;;;;;;5029077;28;20029;-58
2022/08/29 07:55:01;;;;;;;6.13;2.17;;;23.30;65.10;;;;;;5030540;28;20052;-57
2022/08/29 07:57:26;;;;;;;5.90;2.30;;;23.30;65.00;;;;;;5027769;28;20025;-57
2022/08/29 07:59:52;;;;;;;5.50;2.20;;;23.30;65.00;;;;;;5030972;28;20123;-57
2022/08/29 08:02:18;;;;;;;6.35;2.28;;;23.30;65.00;;;;;;5030338;28;20474;-57
2022/08/29 08:04:44;;;;;;;6.40;2.28;;;23.30;64.90;;;;;;5030695;28;20047;-57
2022/08/29 08:07:09;;;;;;;6.53;2.42;;;23.30;64.80;;;;;;5030939;28;20025;-57
2022/08/29 08:09:36;;;;;;;6.72;2.47;;;23.30;64.70;;;;;;5029542;28;20108;-58
2022/08/29 08:12:04;;;;;;;5.97;2.15;;;23.30;64.80;;;;;;5025404;28;20517;-57
2022/08/29 08:14:29;;;;;;;6.38;2.47;;;23.30;64.90;;;;;;5029469;28;20038;-57
2022/08/29 08:16:55;;;;;;;7.25;2.35;;;23.30;65.00;;;;;;5030236;28;20021;-57
2022/08/29 08:19:20;;;;;;;6.43;2.38;;;23.40;65.20;;;;;;5030552;28;20044;-57
2022/08/29 08:21:46;;;;;;;6.95;2.50;;;23.30;65.20;;;;;;5030712;28;20030;-57
2022/08/29 08:24:12;;;;;;;6.18;2.25;;;23.30;65.20;;;;;;5028529;28;20485;-57
2022/08/29 08:26:37;;;;;;;6.03;2.42;;;23.40;65.20;;;;;;5029364;28;20057;-57
2022/08/29 08:29:03;;;;;;;7.80;2.35;;;23.40;65.20;;;;;;5028561;28;20457;-57
2022/08/29 08:31:29;;;;;;;6.90;2.50;;;23.40;65.20;;;;;;5027310;28;20623;-57
2022/08/29 08:33:55;;;;;;;7.60;2.70;;;23.40;65.10;;;;;;5030014;28;20022;-57
2022/08/29 08:36:20;;;;;;;5.57;2.20;;;23.40;65.00;;;;;;5029768;28;20030;-57
2022/08/29 08:38:47;;;;;;;6.88;2.40;;;23.40;65.00;;;;;;5030374;28;20398;-57
2022/08/29 08:41:35;;;;;;;7.05;2.50;;;23.40;65.00;;;;;;5029108;28;20033;-57
2022/08/29 08:44:05;;;;;;;6.60;2.30;;;23.40;64.90;;;;;;5025456;28;20053;-57
2022/08/29 08:46:39;;;;;;;6.30;2.17;;;23.40;64.90;;;;;;5027825;28;20045;-57
2022/08/29 08:49:28;;;;;;;5.35;2.17;;;23.40;64.90;;;;;;5027047;28;20151;-57
2022/08/29 08:51:59;;;;;;;5.50;2.22;;;23.40;64.70;;;;;;5023295;28;20117;-57
2022/08/29 08:54:33;;;;;;;6.07;2.28;;;23.50;64.80;;;;;;5035960;28;20115;-57
2022/08/29 08:57:17;;;;;;;7.63;2.50;;;23.40;63.90;;;;;;5007085;28;20057;-57
2022/08/29 08:59:44;;;;;;;4.90;2.17;;;23.50;65.10;;;;;;5029514;28;20037;-57
2022/08/29 09:02:37;;;;;;;4.95;2.10;;;23.40;64.90;;;;;;5011768;28;20048;-57
2022/08/29 09:05:34;;;;;;;6.30;2.40;;;23.50;65.00;;;;;;5025928;28;20029;-57
2022/08/29 09:08:09;;;;;;;6.95;2.40;;;23.50;64.80;;;;;;5025140;28;20044;-57
2022/08/29 09:10:43;;;;;;;6.43;2.35;;;23.50;64.90;;;;;;5027445;28;20033;-57
2022/08/29 09:13:24;;;;;;;5.63;2.40;;;23.50;64.80;;;;;;5028907;28;20041;-57
2022/08/29 09:15:52;;;;;;;4.63;2.08;;;23.50;64.70;;;;;;5024589;28;20025;-58
2022/08/29 09:18:39;;;;;;;4.57;2.20;;;23.60;64.80;;;;;;5009332;28;20032;-58
2022/08/29 09:21:09;;;;;;;6.22;2.13;;;23.60;64.90;;;;;;5024937;28;20057;-58
2022/08/29 09:23:48;;;;;;;5.38;2.40;;;23.70;64.90;;;;;;5026994;28;20026;-58
2022/08/29 09:26:15;;;;;;;5.70;2.17;;;23.70;64.60;;;;;;5041007;28;20033;-58
2022/08/29 09:28:41;;;;;;;7.93;2.15;;;23.70;64.60;;;;;;5023629;28;20025;-58
2022/08/29 09:31:12;;;;;;;5.78;2.28;;;23.70;64.50;;;;;;5028748;28;20018;-58
2022/08/29 09:33:41;;;;;;;6.57;2.20;;;23.80;64.30;;;;;;5031495;28;20033;-58
2022/08/29 09:36:08;;;;;;;6.03;2.33;;;23.80;64.40;;;;;;5028690;28;20084;-58
2022/08/29 09:38:34;;;;;;;6.82;2.45;;;23.80;64.20;;;;;;5029891;28;20446;-58
2022/08/29 09:41:02;;;;;;;4.63;1.88;;;23.80;64.00;;;;;;5028239;28;20096;-58
2022/08/29 09:43:37;;;;;;;6.07;2.35;;;23.90;63.80;;;;;;5027576;28;20025;-58
2022/08/29 09:46:04;;;;;;;5.45;2.25;;;23.90;64.00;;;;;;5025702;28;20038;-58
2022/08/29 09:48:30;;;;;;;6.13;2.10;;;23.90;63.90;;;;;;5025471;28;20068;-57
2022/08/29 09:51:19;;;;;;;7.63;2.08;;;24.00;64.00;;;;;;5026761;28;20039;-58
2022/08/29 09:53:44;;;;;;;5.72;2.00;;;24.00;63.90;;;;;;5027656;28;20049;-58
2022/08/29 09:56:20;;;;;;;6.10;2.28;;;24.00;63.60;;;;;;5026199;28;20033;-58
2022/08/29 09:58:55;;;;;;;7.07;2.30;;;24.00;63.60;;;;;;5027255;28;20203;-58
2022/08/29 10:01:21;;;;;;;9.80;2.50;;;24.10;63.70;;;;;;5025761;28;20051;-58
2022/08/29 10:04:01;;;;;;;7.18;2.22;;;24.10;63.70;;;;;;5032088;28;20100;-58
2022/08/29 10:06:33;;;;;;;6.50;2.20;;;24.10;63.70;;;;;;5023024;28;20053;-58
2022/08/29 10:09:08;;;;;;;8.63;2.47;;;24.10;63.70;;;;;;5023300;28;20053;-58
2022/08/29 10:11:48;;;;;;;7.88;2.33;;;24.20;63.50;;;;;;5025788;28;20025;-58
2022/08/29 10:14:21;;;;;;;5.78;2.30;;;24.20;63.30;;;;;;5027641;28;20045;-58
2022/08/29 10:16:52;;;;;;;7.75;2.45;;;24.30;63.20;;;;;;5010626;28;20017;-57
2022/08/29 10:19:21;;;;;;;8.25;2.65;;;24.20;63.00;;;;;;5026058;28;20037;-58
2022/08/29 10:21:52;;;;;;;7.47;2.53;;;24.30;63.10;;;;;;5020335;28;20160;-58
2022/08/29 10:24:28;;;;;;;8.13;2.60;;;24.30;62.90;;;;;;5027622;28;20155;-58
2022/08/29 10:27:06;;;;;;;7.55;2.70;;;24.30;62.70;;;;;;5024939;28;20029;-58
2022/08/29 10:29:55;;;;;;;7.10;2.55;;;24.30;62.50;;;;;;5025810;28;20025;-58
2022/08/29 10:32:51;;;;;;;6.63;2.22;;;24.40;62.40;;;;;;5026113;28;20024;-58
2022/08/29 10:35:29;;;;;;;7.10;2.63;;;24.40;62.20;;;;;;5023964;28;20037;-58
2022/08/29 10:37:58;;;;;;;10.18;2.65;;;24.40;62.10;;;;;;5024972;28;20026;-58
2022/08/29 10:40:27;;;;;;;6.13;2.50;;;24.40;62.00;;;;;;5025964;28;20145;-58
2022/08/29 10:43:32;;;;;;;6.22;2.40;;;24.40;61.90;;;;;;5024552;28;21045;-59
2022/08/29 10:46:19;;;;;;;5.70;2.22;;;24.50;62.00;;;;;;5020286;28;20518;-59
2022/08/29 10:48:45;;;;;;;7.90;2.60;;;24.50;61.70;;;;;;4986363;28;20037;-58
2022/08/29 10:51:41;;;;;;;7.25;2.63;;;24.60;61.70;;;;;;5002419;28;20044;-59
2022/08/29 10:54:33;;;;;;;7.15;2.70;;;24.60;60.80;;;;;;5002853;28;20062;-58
2022/08/29 10:57:00;;;;;;;7.38;2.50;;;24.60;60.80;;;;;;4988728;28;20081;-58
2022/08/29 10:59:29;;;;;;;7.32;2.40;;;24.70;60.80;;;;;;5004107;28;20044;-58
2022/08/29 11:02:19;;;;;;;7.80;2.67;;;24.70;61.30;;;;;;5002467;28;20041;-58
2022/08/29 11:04:50;;;;;;;10.30;3.05;;;24.70;60.90;;;;;;4989450;28;20065;-59
2022/08/29 11:07:22;;;;;;;8.80;2.58;;;24.70;59.30;;;;;;5004489;28;20639;-59
2022/08/29 11:10:11;;;;;;;9.82;2.42;;;24.70;59.40;;;;;;4985565;28;20030;-58
2022/08/29 11:12:44;;;;;;;9.55;3.10;;;24.70;59.50;;;;;;4972299;28;20053;-59
2022/08/29 11:15:51;;;;;;;8.57;2.88;;;24.80;58.90;;;;;;4988620;28;20030;-58
2022/08/29 11:18:38;;;;;;;10.52;3.08;;;24.80;58.90;;;;;;4945762;28;20118;-58
2022/08/29 11:21:35;;;;;;;7.47;2.50;;;24.80;58.50;;;;;;4943167;29;20042;-59
2022/08/29 11:24:02;;;;;;;8.95;2.83;;;24.80;57.50;;;;;;4960602;28;20097;-58
2022/08/29 11:26:40;;;;;;;9.93;2.60;;;24.80;57.40;;;;;;4963322;28;20093;-59
2022/08/29 11:29:26;;;;;;;8.25;2.60;;;24.80;57.80;;;;;;4964213;28;20401;-59
2022/08/29 11:32:22;;;;;;;8.65;2.55;;;24.90;57.20;;;;;;4980550;28;20042;-58
2022/08/29 11:34:57;;;;;;;9.20;2.50;;;24.90;57.00;;;;;;4980928;28;20490;-58
2022/08/29 11:37:38;;;;;;;10.63;2.80;;;24.90;57.10;;;;;;4983836;28;20445;-58
2022/08/29 11:40:13;;;;;;;6.93;2.72;;;24.90;56.80;;;;;;4982046;28;20372;-59
2022/08/29 11:42:40;;;;;;;9.85;2.75;;;24.90;57.60;;;;;;4965144;28;20034;-58
2022/08/29 11:45:07;;;;;;;8.93;3.00;;;24.90;57.10;;;;;;4963696;28;20032;-58
2022/08/29 11:47:35;;;;;;;6.65;2.60;;;24.90;57.10;;;;;;4981765;28;20109;-58
2022/08/29 11:50:28;;;;;;;9.55;2.90;;;24.90;57.60;;;;;;4982524;28;20038;-58
2022/08/29 11:53:04;;;;;;;9.98;3.15;;;24.90;56.80;;;;;;4983078;28;20058;-59
2022/08/29 11:55:43;;;;;;;11.30;3.00;;;24.90;56.50;;;;;;5008832;28;20049;-58
2022/08/29 11:58:15;;;;;;;11.85;2.97;;;24.90;56.90;;;;;;5029599;28;20033;-58
2022/08/29 12:00:52;;;;;;;12.27;3.22;;;24.90;56.90;;;;;;5030491;28;20038;-58
2022/08/29 12:03:47;;;;;;;9.40;3.10;;;24.90;56.90;;;;;;5033368;28;20047;-58
2022/08/29 12:06:25;;;;;;;9.55;2.88;;;24.90;57.10;;;;;;5011842;28;20044;-58
2022/08/29 12:08:56;;;;;;;10.27;3.00;;;24.90;56.60;;;;;;5022414;28;20043;-59
2022/08/29 12:11:22;;;;;;;8.90;2.80;;;25.00;56.60;;;;;;5024622;28;20044;-58
2022/08/29 12:13:47;;;;;;;9.80;2.95;;;25.00;56.60;;;;;;5025312;28;20029;-59
2022/08/29 12:16:18;;;;;;;9.68;3.17;;;25.00;56.60;;;;;;5025400;28;20045;-59
2022/08/29 12:18:54;;;;;;;10.60;2.70;;;25.00;56.80;;;;;;5025038;28;20021;-58
2022/08/29 12:21:35;;;;;;;9.15;2.92;;;25.00;56.50;;;;;;5029570;28;20033;-58
2022/08/29 12:24:02;;;;;;;9.40;3.00;;;25.10;56.40;;;;;;5028875;28;20129;-59
2022/08/29 12:26:46;;;;;;;10.90;3.05;;;25.10;56.00;;;;;;5029560;28;20021;-58
2022/08/29 12:29:25;;;;;;;8.48;3.15;;;25.10;56.10;;;;;;5030408;28;20021;-58
2022/08/29 12:32:16;;;;;;;10.07;2.63;;;25.10;55.90;;;;;;5024553;28;20061;-59
2022/08/29 12:35:21;;;;;;;10.25;3.10;;;25.20;55.80;;;;;;5014231;28;20030;-59
2022/08/29 12:38:11;;;;;;;11.48;2.95;;;25.20;55.60;;;;;;5028394;28;20032;-59
2022/08/29 12:40:41;;;;;;;9.48;2.85;;;25.30;55.70;;;;;;5027103;28;20434;-57
2022/08/29 12:43:22;;;;;;;8.85;3.05;;;25.30;55.50;;;;;;5026739;28;20091;-56
2022/08/29 12:45:48;;;;;;;7.97;3.22;;;25.40;55.40;;;;;;5027579;28;20037;-57
2022/08/29 12:48:17;;;;;;;9.93;3.17;;;25.40;55.10;;;;;;5025799;28;20031;-56
2022/08/29 12:50:44;;;;;;;8.75;2.75;;;25.40;55.40;;;;;;5029102;28;20480;-56
2022/08/29 12:53:18;;;;;;;11.88;3.22;;;25.40;55.10;;;;;;5023941;28;20131;-56
2022/08/29 12:55:48;;;;;;;11.85;2.92;;;25.50;55.60;;;;;;5039716;28;20037;-56
2022/08/29 12:58:29;;;;;;;16.02;3.42;;;25.50;55.80;;;;;;5025490;28;20187;-56
2022/08/29 13:00:55;;;;;;;12.25;3.05;;;25.50;56.10;;;;;;5026661;28;20068;-57
2022/08/29 13:03:21;;;;;;;10.73;2.97;;;25.60;56.00;;;;;;5023653;28;20491;-57